sensor_id;sensor_type;location;lat;lon;timestamp;P1;durP1;ratioP1;P2;durP2;ratioP2
12005;SDS011;6062;47.294;12.182;2023-03-14T00:02:08;2.50;;;1.90;;
12005;SDS011;6062;47.294;12.182;2023-03-14T00:04:34;2.50;;;1.92;;
12005;SDS011;6062;47.294;12.182;2023-03-14T00:07:00;2.42;;;1.70;;
12005;SDS011;6062;47.294;12.182;2023-03-14T00:09:26;2.58;;;1.70;;
12005;SDS011;6062;47.294;12.182;2023-03-14T00:11:54;2.03;;;1.60;;
12005;SDS011;6062;47.294;12.182;2023-03-14T00:14:21;2.00;;;1.60;;
12005;SDS011;6062;47.294;12.182;2023-03-14T00:16:47;3.38;;;1.80;;
12005;SDS011;6062;47.294;12.182;2023-03-14T00:19:13;2.28;;;1.55;;
12005;SDS011;6062;47.294;12.182;2023-03-14T00:21:39;2.13;;;1.60;;
12005;SDS011;6062;47.294;12.182;2023-03-14T00:24:05;2.70;;;2.05;;
12005;SDS011;6062;47.294;12.182;2023-03-14T00:26:32;2.20;;;1.85;;
12005;SDS011;6062;47.294;12.182;2023-03-14T00:28:58;2.17;;;1.70;;
12005;SDS011;6062;47.294;12.182;2023-03-14T00:31:23;2.25;;;1.60;;
12005;SDS011;6062;47.294;12.182;2023-03-14T00:33:51;2.63;;;1.80;;
12005;SDS011;6062;47.294;12.182;2023-03-14T00:36:18;2.93;;;1.63;;
12005;SDS011;6062;47.294;12.182;2023-03-14T00:38:45;2.35;;;1.58;;
12005;SDS011;6062;47.294;12.182;2023-03-14T00:41:16;2.47;;;1.45;;
12005;SDS011;6062;47.294;12.182;2023-03-14T00:43:47;2.05;;;1.63;;
12005;SDS011;6062;47.294;12.182;2023-03-14T00:46:13;2.10;;;1.70;;
12005;SDS011;6062;47.294;12.182;2023-03-14T00:48:39;2.30;;;1.63;;
12005;SDS011;6062;47.294;12.182;2023-03-14T00:51:06;2.08;;;1.65;;
12005;SDS011;6062;47.294;12.182;2023-03-14T00:53:37;2.00;;;1.38;;
12005;SDS011;6062;47.294;12.182;2023-03-14T00:56:05;1.83;;;1.60;;
12005;SDS011;6062;47.294;12.182;2023-03-14T00:58:34;2.10;;;1.40;;
12005;SDS011;6062;47.294;12.182;2023-03-14T01:01:04;1.35;;;1.25;;
12005;SDS011;6062;47.294;12.182;2023-03-14T01:03:37;2.80;;;1.90;;
12005;SDS011;6062;47.294;12.182;2023-03-14T01:06:17;2.25;;;1.70;;
12005;SDS011;6062;47.294;12.182;2023-03-14T01:08:51;1.55;;;1.40;;
12005;SDS011;6062;47.294;12.182;2023-03-14T01:11:22;2.08;;;1.50;;
12005;SDS011;6062;47.294;12.182;2023-03-14T01:13:51;1.92;;;1.60;;
12005;SDS011;6062;47.294;12.182;2023-03-14T01:16:18;1.58;;;1.38;;
12005;SDS011;6062;47.294;12.182;2023-03-14T01:18:46;2.88;;;1.33;;
12005;SDS011;6062;47.294;12.182;2023-03-14T01:23:42;2.67;;;1.60;;
12005;SDS011;6062;47.294;12.182;2023-03-14T01:26:10;1.85;;;1.60;;
12005;SDS011;6062;47.294;12.182;2023-03-14T01:28:38;1.80;;;1.33;;
12005;SDS011;6062;47.294;12.182;2023-03-14T01:31:05;2.55;;;1.10;;
12005;SDS011;6062;47.294;12.182;2023-03-14T01:33:33;1.80;;;1.40;;
12005;SDS011;6062;47.294;12.182;2023-03-14T01:35:59;1.63;;;1.37;;
12005;SDS011;6062;47.294;12.182;2023-03-14T01:38:27;1.33;;;1.20;;
12005;SDS011;6062;47.294;12.182;2023-03-14T01:40:54;1.25;;;1.10;;
12005;SDS011;6062;47.294;12.182;2023-03-14T01:43:21;1.45;;;1.20;;
12005;SDS011;6062;47.294;12.182;2023-03-14T01:51:56;1.40;;;1.17;;
12005;SDS011;6062;47.294;12.182;2023-03-14T01:57:06;1.90;;;1.00;;
12005;SDS011;6062;47.294;12.182;2023-03-14T01:59:37;0.95;;;0.90;;
12005;SDS011;6062;47.294;12.182;2023-03-14T02:02:07;1.63;;;1.10;;
12005;SDS011;6062;47.294;12.182;2023-03-14T02:04:37;1.67;;;1.00;;
12005;SDS011;6062;47.294;12.182;2023-03-14T02:09:39;1.08;;;0.90;;
12005;SDS011;6062;47.294;12.182;2023-03-14T02:12:07;1.00;;;0.90;;
12005;SDS011;6062;47.294;12.182;2023-03-14T02:14:36;1.52;;;0.93;;
12005;SDS011;6062;47.294;12.182;2023-03-14T02:17:04;0.88;;;0.80;;
12005;SDS011;6062;47.294;12.182;2023-03-14T02:19:49;0.98;;;0.90;;
12005;SDS011;6062;47.294;12.182;2023-03-14T02:22:30;1.70;;;0.90;;
12005;SDS011;6062;47.294;12.182;2023-03-14T02:25:11;1.25;;;1.00;;
12005;SDS011;6062;47.294;12.182;2023-03-14T02:27:49;0.80;;;0.77;;
12005;SDS011;6062;47.294;12.182;2023-03-14T02:30:37;1.08;;;0.80;;
12005;SDS011;6062;47.294;12.182;2023-03-14T02:33:14;1.00;;;0.90;;
12005;SDS011;6062;47.294;12.182;2023-03-14T02:35:46;0.95;;;0.80;;
12005;SDS011;6062;47.294;12.182;2023-03-14T02:41:06;0.70;;;0.70;;
12005;SDS011;6062;47.294;12.182;2023-03-14T02:43:33;2.25;;;1.10;;
12005;SDS011;6062;47.294;12.182;2023-03-14T02:45:58;2.95;;;1.60;;
12005;SDS011;6062;47.294;12.182;2023-03-14T02:48:34;1.50;;;1.38;;
12005;SDS011;6062;47.294;12.182;2023-03-14T02:51:06;1.95;;;1.40;;
12005;SDS011;6062;47.294;12.182;2023-03-14T02:53:34;1.67;;;1.30;;
12005;SDS011;6062;47.294;12.182;2023-03-14T02:56:02;1.40;;;1.30;;
12005;SDS011;6062;47.294;12.182;2023-03-14T02:58:28;1.73;;;1.33;;
12005;SDS011;6062;47.294;12.182;2023-03-14T03:00:55;1.55;;;1.17;;
12005;SDS011;6062;47.294;12.182;2023-03-14T03:03:21;1.58;;;1.30;;
12005;SDS011;6062;47.294;12.182;2023-03-14T03:05:50;2.60;;;1.20;;
12005;SDS011;6062;47.294;12.182;2023-03-14T03:08:21;1.88;;;1.30;;
12005;SDS011;6062;47.294;12.182;2023-03-14T03:10:50;3.10;;;1.40;;
12005;SDS011;6062;47.294;12.182;2023-03-14T03:13:16;2.33;;;1.60;;
12005;SDS011;6062;47.294;12.182;2023-03-14T03:15:43;3.22;;;2.00;;
12005;SDS011;6062;47.294;12.182;2023-03-14T03:18:09;2.65;;;1.80;;
12005;SDS011;6062;47.294;12.182;2023-03-14T03:20:34;1.75;;;1.60;;
12005;SDS011;6062;47.294;12.182;2023-03-14T03:23:00;1.90;;;1.70;;
12005;SDS011;6062;47.294;12.182;2023-03-14T03:25:27;2.35;;;1.80;;
12005;SDS011;6062;47.294;12.182;2023-03-14T03:27:52;2.22;;;1.85;;
12005;SDS011;6062;47.294;12.182;2023-03-14T03:30:18;2.10;;;1.70;;
12005;SDS011;6062;47.294;12.182;2023-03-14T03:32:44;2.20;;;1.60;;
12005;SDS011;6062;47.294;12.182;2023-03-14T03:35:10;2.40;;;1.70;;
12005;SDS011;6062;47.294;12.182;2023-03-14T03:37:37;2.08;;;1.88;;
12005;SDS011;6062;47.294;12.182;2023-03-14T03:40:03;1.33;;;1.23;;
12005;SDS011;6062;47.294;12.182;2023-03-14T03:42:31;1.47;;;1.30;;
12005;SDS011;6062;47.294;12.182;2023-03-14T03:44:58;1.58;;;1.33;;
12005;SDS011;6062;47.294;12.182;2023-03-14T03:47:26;1.77;;;1.30;;
12005;SDS011;6062;47.294;12.182;2023-03-14T03:49:52;1.20;;;1.10;;
12005;SDS011;6062;47.294;12.182;2023-03-14T03:52:18;1.43;;;1.03;;
12005;SDS011;6062;47.294;12.182;2023-03-14T03:54:44;1.05;;;0.98;;
12005;SDS011;6062;47.294;12.182;2023-03-14T03:57:09;1.10;;;1.00;;
12005;SDS011;6062;47.294;12.182;2023-03-14T03:59:35;0.80;;;0.80;;
12005;SDS011;6062;47.294;12.182;2023-03-14T04:02:01;0.80;;;0.80;;
12005;SDS011;6062;47.294;12.182;2023-03-14T04:04:26;0.67;;;0.67;;
12005;SDS011;6062;47.294;12.182;2023-03-14T04:06:52;0.70;;;0.70;;
12005;SDS011;6062;47.294;12.182;2023-03-14T04:09:18;0.60;;;0.60;;
12005;SDS011;6062;47.294;12.182;2023-03-14T04:11:43;0.50;;;0.50;;
12005;SDS011;6062;47.294;12.182;2023-03-14T04:14:09;0.60;;;0.60;;
12005;SDS011;6062;47.294;12.182;2023-03-14T04:16:35;0.50;;;0.50;;
12005;SDS011;6062;47.294;12.182;2023-03-14T04:19:01;0.90;;;0.90;;
12005;SDS011;6062;47.294;12.182;2023-03-14T04:21:27;1.00;;;0.90;;
12005;SDS011;6062;47.294;12.182;2023-03-14T04:23:53;0.63;;;0.63;;
12005;SDS011;6062;47.294;12.182;2023-03-14T04:26:19;5.97;;;0.97;;
12005;SDS011;6062;47.294;12.182;2023-03-14T04:28:45;1.25;;;0.80;;
12005;SDS011;6062;47.294;12.182;2023-03-14T04:31:12;0.67;;;0.67;;
12005;SDS011;6062;47.294;12.182;2023-03-14T04:33:41;1.23;;;0.60;;
12005;SDS011;6062;47.294;12.182;2023-03-14T04:36:07;2.93;;;0.77;;
12005;SDS011;6062;47.294;12.182;2023-03-14T04:38:34;5.73;;;1.10;;
12005;SDS011;6062;47.294;12.182;2023-03-14T04:41:00;0.70;;;0.70;;
12005;SDS011;6062;47.294;12.182;2023-03-14T04:43:26;0.70;;;0.70;;
12005;SDS011;6062;47.294;12.182;2023-03-14T04:45:53;0.70;;;0.70;;
12005;SDS011;6062;47.294;12.182;2023-03-14T04:48:20;0.50;;;0.50;;
12005;SDS011;6062;47.294;12.182;2023-03-14T04:50:47;25.50;;;1.40;;
12005;SDS011;6062;47.294;12.182;2023-03-14T04:53:13;1.50;;;0.60;;
12005;SDS011;6062;47.294;12.182;2023-03-14T04:55:40;0.50;;;0.50;;
12005;SDS011;6062;47.294;12.182;2023-03-14T04:58:06;95.93;;;3.47;;
12005;SDS011;6062;47.294;12.182;2023-03-14T05:00:32;0.50;;;0.50;;
12005;SDS011;6062;47.294;12.182;2023-03-14T05:02:57;0.60;;;0.60;;
12005;SDS011;6062;47.294;12.182;2023-03-14T05:05:23;0.50;;;0.50;;
12005;SDS011;6062;47.294;12.182;2023-03-14T05:07:49;0.50;;;0.50;;
12005;SDS011;6062;47.294;12.182;2023-03-14T05:10:15;0.40;;;0.40;;
12005;SDS011;6062;47.294;12.182;2023-03-14T05:12:41;0.40;;;0.40;;
12005;SDS011;6062;47.294;12.182;2023-03-14T05:15:07;0.40;;;0.40;;
12005;SDS011;6062;47.294;12.182;2023-03-14T05:17:33;0.40;;;0.40;;
12005;SDS011;6062;47.294;12.182;2023-03-14T05:20:00;0.47;;;0.47;;
12005;SDS011;6062;47.294;12.182;2023-03-14T05:22:26;0.40;;;0.40;;
12005;SDS011;6062;47.294;12.182;2023-03-14T05:24:52;0.50;;;0.50;;
12005;SDS011;6062;47.294;12.182;2023-03-14T05:27:21;0.40;;;0.40;;
12005;SDS011;6062;47.294;12.182;2023-03-14T05:29:47;0.40;;;0.40;;
12005;SDS011;6062;47.294;12.182;2023-03-14T05:32:13;0.40;;;0.40;;
12005;SDS011;6062;47.294;12.182;2023-03-14T05:34:39;0.40;;;0.40;;
12005;SDS011;6062;47.294;12.182;2023-03-14T05:37:04;0.40;;;0.40;;
12005;SDS011;6062;47.294;12.182;2023-03-14T05:39:30;0.40;;;0.40;;
12005;SDS011;6062;47.294;12.182;2023-03-14T05:41:56;0.40;;;0.40;;
12005;SDS011;6062;47.294;12.182;2023-03-14T05:44:21;0.40;;;0.40;;
12005;SDS011;6062;47.294;12.182;2023-03-14T05:46:47;0.40;;;0.40;;
12005;SDS011;6062;47.294;12.182;2023-03-14T05:49:13;0.40;;;0.40;;
12005;SDS011;6062;47.294;12.182;2023-03-14T05:51:39;0.40;;;0.40;;
12005;SDS011;6062;47.294;12.182;2023-03-14T05:54:04;0.40;;;0.40;;
12005;SDS011;6062;47.294;12.182;2023-03-14T05:56:30;0.33;;;0.33;;
12005;SDS011;6062;47.294;12.182;2023-03-14T05:58:56;0.40;;;0.40;;
12005;SDS011;6062;47.294;12.182;2023-03-14T06:01:22;0.37;;;0.37;;
12005;SDS011;6062;47.294;12.182;2023-03-14T06:03:48;0.40;;;0.40;;
12005;SDS011;6062;47.294;12.182;2023-03-14T06:06:13;0.40;;;0.40;;
12005;SDS011;6062;47.294;12.182;2023-03-14T06:08:39;0.40;;;0.40;;
12005;SDS011;6062;47.294;12.182;2023-03-14T06:11:05;0.40;;;0.40;;
12005;SDS011;6062;47.294;12.182;2023-03-14T06:13:31;0.40;;;0.40;;
12005;SDS011;6062;47.294;12.182;2023-03-14T06:15:57;0.40;;;0.40;;
12005;SDS011;6062;47.294;12.182;2023-03-14T06:18:22;0.30;;;0.30;;
12005;SDS011;6062;47.294;12.182;2023-03-14T06:20:48;0.40;;;0.40;;
12005;SDS011;6062;47.294;12.182;2023-03-14T06:23:13;0.40;;;0.40;;
12005;SDS011;6062;47.294;12.182;2023-03-14T06:25:39;0.40;;;0.40;;
12005;SDS011;6062;47.294;12.182;2023-03-14T06:28:05;0.30;;;0.30;;
12005;SDS011;6062;47.294;12.182;2023-03-14T06:30:31;0.40;;;0.40;;
12005;SDS011;6062;47.294;12.182;2023-03-14T06:32:56;0.30;;;0.30;;
12005;SDS011;6062;47.294;12.182;2023-03-14T06:35:22;0.40;;;0.40;;
12005;SDS011;6062;47.294;12.182;2023-03-14T06:37:48;0.40;;;0.40;;
12005;SDS011;6062;47.294;12.182;2023-03-14T06:40:14;0.33;;;0.33;;
12005;SDS011;6062;47.294;12.182;2023-03-14T06:42:45;0.30;;;0.30;;
12005;SDS011;6062;47.294;12.182;2023-03-14T06:45:12;0.40;;;0.40;;
12005;SDS011;6062;47.294;12.182;2023-03-14T06:47:38;0.40;;;0.40;;
12005;SDS011;6062;47.294;12.182;2023-03-14T06:50:05;0.40;;;0.40;;
12005;SDS011;6062;47.294;12.182;2023-03-14T06:52:33;0.30;;;0.30;;
12005;SDS011;6062;47.294;12.182;2023-03-14T06:54:58;0.40;;;0.40;;
12005;SDS011;6062;47.294;12.182;2023-03-14T06:57:24;0.40;;;0.40;;
12005;SDS011;6062;47.294;12.182;2023-03-14T06:59:50;0.30;;;0.30;;
12005;SDS011;6062;47.294;12.182;2023-03-14T07:02:16;0.33;;;0.33;;
12005;SDS011;6062;47.294;12.182;2023-03-14T07:04:42;0.30;;;0.30;;
12005;SDS011;6062;47.294;12.182;2023-03-14T07:07:08;0.40;;;0.40;;
12005;SDS011;6062;47.294;12.182;2023-03-14T07:09:34;0.40;;;0.40;;
12005;SDS011;6062;47.294;12.182;2023-03-14T07:12:00;0.40;;;0.40;;
12005;SDS011;6062;47.294;12.182;2023-03-14T07:14:28;0.40;;;0.40;;
12005;SDS011;6062;47.294;12.182;2023-03-14T07:16:53;0.30;;;0.30;;
12005;SDS011;6062;47.294;12.182;2023-03-14T07:19:19;0.40;;;0.40;;
12005;SDS011;6062;47.294;12.182;2023-03-14T07:21:45;0.30;;;0.30;;
12005;SDS011;6062;47.294;12.182;2023-03-14T07:24:10;0.40;;;0.40;;
12005;SDS011;6062;47.294;12.182;2023-03-14T07:26:36;0.40;;;0.40;;
12005;SDS011;6062;47.294;12.182;2023-03-14T07:29:02;0.40;;;0.40;;
12005;SDS011;6062;47.294;12.182;2023-03-14T07:31:28;0.40;;;0.40;;
12005;SDS011;6062;47.294;12.182;2023-03-14T07:33:54;0.40;;;0.40;;
12005;SDS011;6062;47.294;12.182;2023-03-14T07:36:21;0.30;;;0.30;;
12005;SDS011;6062;47.294;12.182;2023-03-14T07:38:47;0.40;;;0.40;;
12005;SDS011;6062;47.294;12.182;2023-03-14T07:41:13;0.40;;;0.40;;
12005;SDS011;6062;47.294;12.182;2023-03-14T07:43:39;0.30;;;0.30;;
12005;SDS011;6062;47.294;12.182;2023-03-14T07:46:05;0.30;;;0.30;;
12005;SDS011;6062;47.294;12.182;2023-03-14T07:48:31;0.38;;;0.38;;
12005;SDS011;6062;47.294;12.182;2023-03-14T07:50:57;0.40;;;0.40;;
12005;SDS011;6062;47.294;12.182;2023-03-14T07:53:23;0.40;;;0.40;;
12005;SDS011;6062;47.294;12.182;2023-03-14T07:55:52;0.40;;;0.40;;
12005;SDS011;6062;47.294;12.182;2023-03-14T07:58:19;0.40;;;0.40;;
12005;SDS011;6062;47.294;12.182;2023-03-14T08:00:49;18.70;;;0.77;;
12005;SDS011;6062;47.294;12.182;2023-03-14T08:03:16;104.13;;;3.42;;
12005;SDS011;6062;47.294;12.182;2023-03-14T08:05:43;1.40;;;0.50;;
12005;SDS011;6062;47.294;12.182;2023-03-14T08:08:13;10.50;;;1.13;;
12005;SDS011;6062;47.294;12.182;2023-03-14T08:10:38;7.15;;;0.80;;
12005;SDS011;6062;47.294;12.182;2023-03-14T08:13:04;0.30;;;0.30;;
12005;SDS011;6062;47.294;12.182;2023-03-14T08:15:30;0.38;;;0.38;;
12005;SDS011;6062;47.294;12.182;2023-03-14T08:17:57;0.40;;;0.40;;
12005;SDS011;6062;47.294;12.182;2023-03-14T08:20:24;0.32;;;0.32;;
12005;SDS011;6062;47.294;12.182;2023-03-14T08:22:53;0.30;;;0.30;;
12005;SDS011;6062;47.294;12.182;2023-03-14T08:25:22;0.30;;;0.30;;
12005;SDS011;6062;47.294;12.182;2023-03-14T08:27:48;0.30;;;0.30;;
12005;SDS011;6062;47.294;12.182;2023-03-14T08:30:14;0.30;;;0.30;;
12005;SDS011;6062;47.294;12.182;2023-03-14T08:32:42;0.30;;;0.30;;
12005;SDS011;6062;47.294;12.182;2023-03-14T08:35:09;0.30;;;0.30;;
12005;SDS011;6062;47.294;12.182;2023-03-14T08:37:35;0.40;;;0.40;;
12005;SDS011;6062;47.294;12.182;2023-03-14T08:40:02;0.40;;;0.40;;
12005;SDS011;6062;47.294;12.182;2023-03-14T08:42:31;0.40;;;0.40;;
12005;SDS011;6062;47.294;12.182;2023-03-14T08:44:58;0.30;;;0.30;;
12005;SDS011;6062;47.294;12.182;2023-03-14T08:47:24;0.30;;;0.30;;
12005;SDS011;6062;47.294;12.182;2023-03-14T08:49:50;0.40;;;0.40;;
12005;SDS011;6062;47.294;12.182;2023-03-14T08:52:16;0.30;;;0.30;;
12005;SDS011;6062;47.294;12.182;2023-03-14T08:54:45;0.32;;;0.30;;
12005;SDS011;6062;47.294;12.182;2023-03-14T08:57:12;4.00;;;0.40;;
12005;SDS011;6062;47.294;12.182;2023-03-14T08:59:37;0.30;;;0.30;;
12005;SDS011;6062;47.294;12.182;2023-03-14T09:02:03;10.02;;;0.50;;
12005;SDS011;6062;47.294;12.182;2023-03-14T09:04:30;4.65;;;0.52;;
12005;SDS011;6062;47.294;12.182;2023-03-14T09:25:05;0.30;;;0.30;;
12005;SDS011;6062;47.294;12.182;2023-03-14T09:27:32;0.30;;;0.30;;
12005;SDS011;6062;47.294;12.182;2023-03-14T09:29:57;0.30;;;0.30;;
12005;SDS011;6062;47.294;12.182;2023-03-14T09:32:23;0.30;;;0.30;;
12005;SDS011;6062;47.294;12.182;2023-03-14T09:34:49;0.30;;;0.30;;
12005;SDS011;6062;47.294;12.182;2023-03-14T09:37:14;0.30;;;0.30;;
12005;SDS011;6062;47.294;12.182;2023-03-14T09:39:41;0.30;;;0.30;;
12005;SDS011;6062;47.294;12.182;2023-03-14T09:42:07;11.77;;;0.80;;
12005;SDS011;6062;47.294;12.182;2023-03-14T09:44:42;0.32;;;0.32;;
12005;SDS011;6062;47.294;12.182;2023-03-14T09:47:30;0.20;;;0.20;;
12005;SDS011;6062;47.294;12.182;2023-03-14T09:49:59;0.30;;;0.30;;
12005;SDS011;6062;47.294;12.182;2023-03-14T09:52:32;0.30;;;0.30;;
12005;SDS011;6062;47.294;12.182;2023-03-14T09:55:05;0.20;;;0.20;;
12005;SDS011;6062;47.294;12.182;2023-03-14T09:57:38;0.28;;;0.28;;
12005;SDS011;6062;47.294;12.182;2023-03-14T10:00:17;0.30;;;0.30;;
12005;SDS011;6062;47.294;12.182;2023-03-14T10:02:47;0.30;;;0.30;;
12005;SDS011;6062;47.294;12.182;2023-03-14T10:05:21;0.30;;;0.30;;
12005;SDS011;6062;47.294;12.182;2023-03-14T10:07:49;0.30;;;0.30;;
12005;SDS011;6062;47.294;12.182;2023-03-14T10:10:16;0.30;;;0.30;;
12005;SDS011;6062;47.294;12.182;2023-03-14T10:12:46;0.20;;;0.20;;
12005;SDS011;6062;47.294;12.182;2023-03-14T10:15:28;0.20;;;0.20;;
12005;SDS011;6062;47.294;12.182;2023-03-14T10:17:59;0.30;;;0.30;;
12005;SDS011;6062;47.294;12.182;2023-03-14T10:23:16;0.30;;;0.30;;
12005;SDS011;6062;47.294;12.182;2023-03-14T10:26:04;0.30;;;0.30;;
12005;SDS011;6062;47.294;12.182;2023-03-14T10:31:18;0.30;;;0.30;;
12005;SDS011;6062;47.294;12.182;2023-03-14T10:34:03;0.30;;;0.30;;
12005;SDS011;6062;47.294;12.182;2023-03-14T10:36:30;0.30;;;0.30;;
12005;SDS011;6062;47.294;12.182;2023-03-14T10:42:19;0.38;;;0.38;;
12005;SDS011;6062;47.294;12.182;2023-03-14T10:44:55;0.37;;;0.37;;
12005;SDS011;6062;47.294;12.182;2023-03-14T10:47:25;0.30;;;0.30;;
12005;SDS011;6062;47.294;12.182;2023-03-14T10:49:53;0.30;;;0.30;;
12005;SDS011;6062;47.294;12.182;2023-03-14T10:52:21;0.30;;;0.30;;
12005;SDS011;6062;47.294;12.182;2023-03-14T10:55:08;0.30;;;0.30;;
12005;SDS011;6062;47.294;12.182;2023-03-14T10:57:40;0.30;;;0.30;;
12005;SDS011;6062;47.294;12.182;2023-03-14T11:00:18;0.30;;;0.30;;
12005;SDS011;6062;47.294;12.182;2023-03-14T11:05:34;0.40;;;0.40;;
12005;SDS011;6062;47.294;12.182;2023-03-14T11:08:23;0.30;;;0.30;;
12005;SDS011;6062;47.294;12.182;2023-03-14T11:11:22;0.40;;;0.40;;
12005;SDS011;6062;47.294;12.182;2023-03-14T11:22:47;0.30;;;0.30;;
12005;SDS011;6062;47.294;12.182;2023-03-14T11:25:45;0.30;;;0.30;;
12005;SDS011;6062;47.294;12.182;2023-03-14T11:28:32;0.70;;;0.40;;
12005;SDS011;6062;47.294;12.182;2023-03-14T11:36:40;0.30;;;0.30;;
12005;SDS011;6062;47.294;12.182;2023-03-14T11:39:49;0.30;;;0.30;;
12005;SDS011;6062;47.294;12.182;2023-03-14T11:42:30;0.30;;;0.30;;
12005;SDS011;6062;47.294;12.182;2023-03-14T11:44:58;0.40;;;0.40;;
12005;SDS011;6062;47.294;12.182;2023-03-14T11:47:28;0.30;;;0.30;;
12005;SDS011;6062;47.294;12.182;2023-03-14T11:52:50;0.30;;;0.30;;
12005;SDS011;6062;47.294;12.182;2023-03-14T11:55:30;0.30;;;0.30;;
12005;SDS011;6062;47.294;12.182;2023-03-14T11:58:01;0.30;;;0.30;;
12005;SDS011;6062;47.294;12.182;2023-03-14T12:00:38;0.30;;;0.30;;
12005;SDS011;6062;47.294;12.182;2023-03-14T12:05:56;0.30;;;0.30;;
12005;SDS011;6062;47.294;12.182;2023-03-14T12:08:32;0.20;;;0.20;;
12005;SDS011;6062;47.294;12.182;2023-03-14T12:17:06;0.20;;;0.20;;
12005;SDS011;6062;47.294;12.182;2023-03-14T12:19:48;0.20;;;0.20;;
12005;SDS011;6062;47.294;12.182;2023-03-14T12:22:51;0.20;;;0.20;;
12005;SDS011;6062;47.294;12.182;2023-03-14T12:25:24;0.20;;;0.20;;
12005;SDS011;6062;47.294;12.182;2023-03-14T12:30:26;0.20;;;0.20;;
12005;SDS011;6062;47.294;12.182;2023-03-14T12:33:37;0.20;;;0.20;;
12005;SDS011;6062;47.294;12.182;2023-03-14T12:35:47;0.20;;;0.20;;
12005;SDS011;6062;47.294;12.182;2023-03-14T12:41:13;0.20;;;0.20;;
12005;SDS011;6062;47.294;12.182;2023-03-14T12:43:51;0.30;;;0.30;;
12005;SDS011;6062;47.294;12.182;2023-03-14T12:48:43;0.20;;;0.20;;
12005;SDS011;6062;47.294;12.182;2023-03-14T12:51:57;0.20;;;0.20;;
12005;SDS011;6062;47.294;12.182;2023-03-14T13:03:13;0.20;;;0.20;;
12005;SDS011;6062;47.294;12.182;2023-03-14T13:08:32;2.25;;;0.32;;
12005;SDS011;6062;47.294;12.182;2023-03-14T13:11:08;14.73;;;1.00;;
12005;SDS011;6062;47.294;12.182;2023-03-14T13:13:44;2.00;;;0.50;;
12005;SDS011;6062;47.294;12.182;2023-03-14T13:16:15;3.13;;;0.60;;
12005;SDS011;6062;47.294;12.182;2023-03-14T13:18:45;3.78;;;0.50;;
12005;SDS011;6062;47.294;12.182;2023-03-14T13:21:16;2.83;;;0.50;;
12005;SDS011;6062;47.294;12.182;2023-03-14T13:26:22;0.70;;;0.70;;
12005;SDS011;6062;47.294;12.182;2023-03-14T13:28:56;0.70;;;0.70;;
12005;SDS011;6062;47.294;12.182;2023-03-14T13:31:23;0.70;;;0.70;;
12005;SDS011;6062;47.294;12.182;2023-03-14T13:34:01;0.40;;;0.40;;
12005;SDS011;6062;47.294;12.182;2023-03-14T13:36:35;0.40;;;0.40;;
12005;SDS011;6062;47.294;12.182;2023-03-14T13:39:01;0.30;;;0.30;;
12005;SDS011;6062;47.294;12.182;2023-03-14T13:41:37;0.40;;;0.40;;
12005;SDS011;6062;47.294;12.182;2023-03-14T13:44:06;0.20;;;0.20;;
12005;SDS011;6062;47.294;12.182;2023-03-14T13:46:47;0.30;;;0.30;;
12005;SDS011;6062;47.294;12.182;2023-03-14T13:49:16;0.20;;;0.20;;
12005;SDS011;6062;47.294;12.182;2023-03-14T13:51:50;0.30;;;0.30;;
12005;SDS011;6062;47.294;12.182;2023-03-14T13:54:17;11.98;;;0.80;;
12005;SDS011;6062;47.294;12.182;2023-03-14T13:56:45;0.40;;;0.40;;
12005;SDS011;6062;47.294;12.182;2023-03-14T13:59:22;0.50;;;0.50;;
12005;SDS011;6062;47.294;12.182;2023-03-14T14:01:49;14.10;;;1.08;;
12005;SDS011;6062;47.294;12.182;2023-03-14T14:04:18;40.97;;;1.95;;
12005;SDS011;6062;47.294;12.182;2023-03-14T14:07:05;18.63;;;1.00;;
12005;SDS011;6062;47.294;12.182;2023-03-14T14:09:39;0.50;;;0.50;;
12005;SDS011;6062;47.294;12.182;2023-03-14T14:12:10;0.30;;;0.30;;
12005;SDS011;6062;47.294;12.182;2023-03-14T14:14:47;0.40;;;0.40;;
12005;SDS011;6062;47.294;12.182;2023-03-14T14:17:22;0.40;;;0.40;;
12005;SDS011;6062;47.294;12.182;2023-03-14T14:20:16;0.40;;;0.40;;
12005;SDS011;6062;47.294;12.182;2023-03-14T14:23:02;0.50;;;0.50;;
12005;SDS011;6062;47.294;12.182;2023-03-14T14:25:36;3.90;;;0.60;;
12005;SDS011;6062;47.294;12.182;2023-03-14T14:30:53;0.30;;;0.30;;
12005;SDS011;6062;47.294;12.182;2023-03-14T14:33:30;0.40;;;0.40;;
12005;SDS011;6062;47.294;12.182;2023-03-14T14:39:11;0.50;;;0.50;;
12005;SDS011;6062;47.294;12.182;2023-03-14T14:41:48;0.50;;;0.50;;
12005;SDS011;6062;47.294;12.182;2023-03-14T14:44:17;0.40;;;0.40;;
12005;SDS011;6062;47.294;12.182;2023-03-14T14:46:54;0.77;;;0.50;;
12005;SDS011;6062;47.294;12.182;2023-03-14T14:49:27;0.80;;;0.40;;
12005;SDS011;6062;47.294;12.182;2023-03-14T14:52:42;0.30;;;0.30;;
12005;SDS011;6062;47.294;12.182;2023-03-14T14:54:46;0.30;;;0.30;;
12005;SDS011;6062;47.294;12.182;2023-03-14T14:57:20;0.30;;;0.30;;
12005;SDS011;6062;47.294;12.182;2023-03-14T15:00:17;0.30;;;0.30;;
12005;SDS011;6062;47.294;12.182;2023-03-14T15:02:51;0.30;;;0.30;;
12005;SDS011;6062;47.294;12.182;2023-03-14T15:05:24;0.30;;;0.30;;
12005;SDS011;6062;47.294;12.182;2023-03-14T15:07:52;0.30;;;0.30;;
12005;SDS011;6062;47.294;12.182;2023-03-14T15:10:22;0.40;;;0.40;;
12005;SDS011;6062;47.294;12.182;2023-03-14T15:12:51;0.30;;;0.30;;
12005;SDS011;6062;47.294;12.182;2023-03-14T15:15:17;0.32;;;0.32;;
12005;SDS011;6062;47.294;12.182;2023-03-14T15:17:43;0.30;;;0.30;;
12005;SDS011;6062;47.294;12.182;2023-03-14T15:20:10;0.30;;;0.30;;
12005;SDS011;6062;47.294;12.182;2023-03-14T15:22:41;0.40;;;0.40;;
12005;SDS011;6062;47.294;12.182;2023-03-14T15:25:08;0.40;;;0.40;;
12005;SDS011;6062;47.294;12.182;2023-03-14T15:27:35;0.40;;;0.40;;
12005;SDS011;6062;47.294;12.182;2023-03-14T15:30:04;0.63;;;0.40;;
12005;SDS011;6062;47.294;12.182;2023-03-14T15:32:31;1.75;;;0.40;;
12005;SDS011;6062;47.294;12.182;2023-03-14T15:34:56;0.40;;;0.40;;
12005;SDS011;6062;47.294;12.182;2023-03-14T15:37:22;0.40;;;0.40;;
12005;SDS011;6062;47.294;12.182;2023-03-14T15:39:48;0.40;;;0.40;;
12005;SDS011;6062;47.294;12.182;2023-03-14T15:42:14;0.40;;;0.40;;
12005;SDS011;6062;47.294;12.182;2023-03-14T15:44:39;0.40;;;0.40;;
12005;SDS011;6062;47.294;12.182;2023-03-14T15:47:05;0.30;;;0.30;;
12005;SDS011;6062;47.294;12.182;2023-03-14T15:49:34;0.40;;;0.40;;
12005;SDS011;6062;47.294;12.182;2023-03-14T15:52:00;0.43;;;0.43;;
12005;SDS011;6062;47.294;12.182;2023-03-14T15:54:27;0.40;;;0.40;;
12005;SDS011;6062;47.294;12.182;2023-03-14T15:56:53;0.40;;;0.40;;
12005;SDS011;6062;47.294;12.182;2023-03-14T15:59:20;0.40;;;0.40;;
12005;SDS011;6062;47.294;12.182;2023-03-14T16:01:47;0.40;;;0.40;;
12005;SDS011;6062;47.294;12.182;2023-03-14T16:04:13;0.40;;;0.40;;
12005;SDS011;6062;47.294;12.182;2023-03-14T16:06:39;0.40;;;0.40;;
12005;SDS011;6062;47.294;12.182;2023-03-14T16:09:05;0.40;;;0.40;;
12005;SDS011;6062;47.294;12.182;2023-03-14T16:11:32;0.40;;;0.40;;
12005;SDS011;6062;47.294;12.182;2023-03-14T16:13:57;0.40;;;0.40;;
12005;SDS011;6062;47.294;12.182;2023-03-14T16:16:23;0.40;;;0.40;;
12005;SDS011;6062;47.294;12.182;2023-03-14T16:18:49;0.40;;;0.40;;
12005;SDS011;6062;47.294;12.182;2023-03-14T16:21:16;0.40;;;0.40;;
12005;SDS011;6062;47.294;12.182;2023-03-14T16:23:44;12.00;;;0.77;;
12005;SDS011;6062;47.294;12.182;2023-03-14T16:26:11;1.50;;;0.50;;
12005;SDS011;6062;47.294;12.182;2023-03-14T16:28:42;0.50;;;0.50;;
12005;SDS011;6062;47.294;12.182;2023-03-14T16:31:10;0.60;;;0.60;;
12005;SDS011;6062;47.294;12.182;2023-03-14T16:33:40;1.70;;;0.47;;
12005;SDS011;6062;47.294;12.182;2023-03-14T16:36:07;0.50;;;0.50;;
12005;SDS011;6062;47.294;12.182;2023-03-14T16:38:37;0.50;;;0.50;;
12005;SDS011;6062;47.294;12.182;2023-03-14T16:43:39;0.50;;;0.50;;
12005;SDS011;6062;47.294;12.182;2023-03-14T16:46:06;0.50;;;0.50;;